createdAt,value
2022-11-19T00:00:47.043Z,3.50
2022-11-19T00:03:14.388Z,6.30
2022-11-19T00:05:41.993Z,5.80
2022-11-19T00:08:09.144Z,6.18
2022-11-19T00:10:36.851Z,2.80
2022-11-19T00:13:04.411Z,3.75
2022-11-19T00:15:31.556Z,4.05
2022-11-19T00:17:58.508Z,5.50
2022-11-19T00:20:25.494Z,8.02
2022-11-19T00:22:53.540Z,3.40
2022-11-19T00:25:20.863Z,5.60
2022-11-19T00:27:47.682Z,6.20
2022-11-19T00:30:32.545Z,3.92
2022-11-19T00:33:01.330Z,4.28
2022-11-19T00:35:28.085Z,4.93
2022-11-19T00:37:54.843Z,2.63
2022-11-19T00:40:21.607Z,3.47
2022-11-19T00:43:08.342Z,5.65
2022-11-19T00:45:35.156Z,6.30
2022-11-19T00:48:01.908Z,5.25
2022-11-19T00:50:29.258Z,5.05
2022-11-19T00:52:56.037Z,5.50
2022-11-19T00:55:22.788Z,4.78
2022-11-19T00:57:49.543Z,4.30
2022-11-19T01:00:16.578Z,4.30
2022-11-19T01:02:43.337Z,4.53
2022-11-19T01:05:10.109Z,4.28
2022-11-19T01:07:36.911Z,3.85
2022-11-19T01:10:03.964Z,6.63
2022-11-19T01:12:30.742Z,3.97
2022-11-19T01:14:57.506Z,6.45
2022-11-19T01:17:24.262Z,6.63
2022-11-19T01:19:51.045Z,5.35
2022-11-19T01:22:17.895Z,7.32
2022-11-19T01:24:44.639Z,4.63
2022-11-19T01:27:11.446Z,4.47
2022-11-19T01:29:38.211Z,3.25
2022-11-19T01:32:05.047Z,3.42
2022-11-19T01:34:31.804Z,3.03
2022-11-19T01:36:58.620Z,7.35
2022-11-19T01:39:25.448Z,4.15
2022-11-19T01:41:52.234Z,4.78
2022-11-19T01:44:38.002Z,2.97
2022-11-19T01:47:04.775Z,3.70
2022-11-19T01:49:31.529Z,3.92
2022-11-19T01:52:00.686Z,4.05
2022-11-19T01:54:30.303Z,4.38
2022-11-19T01:57:00.347Z,3.42
2022-11-19T01:59:28.112Z,3.20
2022-11-19T02:01:55.092Z,3.20
2022-11-19T02:04:22.237Z,4.90
2022-11-19T02:06:49.096Z,2.67
2022-11-19T02:09:15.887Z,3.72
2022-11-19T02:12:00.981Z,4.78
2022-11-19T02:14:33.839Z,2.92
2022-11-19T02:17:12.749Z,3.38
2022-11-19T02:20:05.815Z,5.70
2022-11-19T02:22:32.560Z,3.10
2022-11-19T02:25:19.574Z,2.63
2022-11-19T02:27:56.499Z,2.95
2022-11-19T02:30:23.530Z,2.70
2022-11-19T02:32:59.125Z,2.92
2022-11-19T02:35:29.011Z,5.13
2022-11-19T02:38:01.960Z,3.85
2022-11-19T02:40:30.941Z,4.60
2022-11-19T02:43:13.022Z,3.50
2022-11-19T02:45:43.106Z,3.95
2022-11-19T02:48:16.227Z,4.65
2022-11-19T02:50:50.598Z,4.05
2022-11-19T02:53:17.423Z,3.10
2022-11-19T02:56:07.368Z,5.10
2022-11-19T02:58:54.890Z,5.22
2022-11-19T03:01:40.915Z,5.28
2022-11-19T03:04:27.562Z,3.55
2022-11-19T03:06:54.594Z,3.53
2022-11-19T03:09:22.056Z,3.72
2022-11-19T03:11:52.874Z,7.78
2022-11-19T03:14:41.310Z,4.50
2022-11-19T03:17:11.128Z,3.95
2022-11-19T03:19:50.668Z,4.47
2022-11-19T03:22:20.500Z,2.95
2022-11-19T03:24:59.776Z,3.28
2022-11-19T03:27:38.838Z,6.53
2022-11-19T03:30:06.105Z,3.60
2022-11-19T03:32:36.014Z,5.88
2022-11-19T03:35:06.155Z,6.50
2022-11-19T03:37:35.037Z,4.15
2022-11-19T03:40:03.113Z,3.00
2022-11-19T03:42:30.366Z,5.20
2022-11-19T03:44:59.856Z,5.60
2022-11-19T03:47:30.398Z,4.50
2022-11-19T03:49:59.808Z,3.25
2022-11-19T03:52:26.634Z,3.20
2022-11-19T03:54:53.413Z,4.28
2022-11-19T03:57:21.469Z,2.20
2022-11-19T03:59:48.213Z,3.30
2022-11-19T04:02:15.682Z,3.78
2022-11-19T04:04:42.545Z,5.03
2022-11-19T04:07:15.441Z,4.43
2022-11-19T04:09:42.843Z,3.22
2022-11-19T04:12:14.846Z,3.92
2022-11-19T04:14:41.604Z,5.05
2022-11-19T04:17:08.421Z,2.97
2022-11-19T04:19:35.219Z,3.95
2022-11-19T04:22:01.995Z,2.08
2022-11-19T04:24:28.998Z,4.65
2022-11-19T04:26:55.842Z,4.43
2022-11-19T04:29:22.674Z,4.63
2022-11-19T04:31:49.524Z,2.28
2022-11-19T04:34:16.330Z,3.72
2022-11-19T04:36:43.155Z,2.05
2022-11-19T04:39:10.978Z,3.78
2022-11-19T04:41:38.414Z,3.67
2022-11-19T04:44:05.678Z,5.47
2022-11-19T04:46:32.821Z,3.60
2022-11-19T04:48:59.711Z,2.47
2022-11-19T04:51:26.482Z,4.90
2022-11-19T04:53:54.171Z,3.05
2022-11-19T04:56:21.033Z,4.18
2022-11-19T04:58:47.808Z,4.22
2022-11-19T05:01:14.664Z,2.67
2022-11-19T05:03:41.457Z,6.95
2022-11-19T05:06:08.200Z,4.75
2022-11-19T05:08:35.250Z,3.10
2022-11-19T05:11:02.056Z,3.63
2022-11-19T05:13:28.842Z,2.80
2022-11-19T05:15:55.724Z,3.50
2022-11-19T05:18:23.801Z,3.22
2022-11-19T05:20:50.582Z,4.18
2022-11-19T05:23:17.386Z,4.32
2022-11-19T05:25:44.230Z,1.92
2022-11-19T05:28:11.087Z,5.25
2022-11-19T05:30:37.923Z,2.40
2022-11-19T05:33:04.996Z,2.78
2022-11-19T05:35:32.060Z,4.57
2022-11-19T05:37:58.865Z,3.58
2022-11-19T05:40:25.610Z,3.25
2022-11-19T05:42:52.482Z,2.78
2022-11-19T05:45:19.374Z,8.02
2022-11-19T05:47:48.704Z,4.32
2022-11-19T05:50:15.793Z,3.08
2022-11-19T05:52:42.595Z,3.88
2022-11-19T05:55:09.538Z,4.82
2022-11-19T05:57:37.161Z,4.13
2022-11-19T06:00:05.279Z,2.78
2022-11-19T06:02:32.178Z,2.00
2022-11-19T06:04:58.953Z,2.80
2022-11-19T06:07:25.771Z,3.28
2022-11-19T06:09:52.638Z,2.00
2022-11-19T06:12:19.594Z,4.45
2022-11-19T06:14:46.699Z,2.97
2022-11-19T06:17:13.469Z,4.78
2022-11-19T06:19:40.835Z,3.60
2022-11-19T06:22:07.613Z,3.25
2022-11-19T06:24:34.377Z,3.17
2022-11-19T06:27:01.581Z,3.20
2022-11-19T06:29:28.410Z,4.32
2022-11-19T06:31:55.205Z,3.85
2022-11-19T06:34:22.069Z,3.05
2022-11-19T06:36:50.682Z,3.17
2022-11-19T06:39:18.323Z,3.10
2022-11-19T06:41:45.520Z,3.40
2022-11-19T06:44:12.284Z,4.75
2022-11-19T06:46:39.063Z,6.65
2022-11-19T06:49:06.025Z,4.07
2022-11-19T06:51:33.173Z,5.70
2022-11-19T06:53:59.927Z,2.97
2022-11-19T06:56:26.741Z,4.68
2022-11-19T06:58:56.059Z,4.97
2022-11-19T07:01:22.822Z,5.07
2022-11-19T07:03:49.648Z,4.22
2022-11-19T07:06:16.421Z,3.65
2022-11-19T07:08:43.169Z,3.55
2022-11-19T07:11:28.538Z,7.40
2022-11-19T07:13:58.264Z,4.53
2022-11-19T07:16:35.526Z,4.65
2022-11-19T07:19:04.144Z,5.78
2022-11-19T07:21:31.117Z,4.28
2022-11-19T07:23:59.005Z,6.15
2022-11-19T07:26:28.431Z,2.33
2022-11-19T07:28:55.255Z,3.83
2022-11-19T07:31:22.171Z,6.00
2022-11-19T07:33:49.045Z,5.03
2022-11-19T07:36:18.601Z,5.72
2022-11-19T07:38:46.366Z,6.97
2022-11-19T07:41:31.876Z,5.00
2022-11-19T07:43:58.678Z,4.68
2022-11-19T07:46:25.417Z,3.88
2022-11-19T07:48:55.864Z,4.10
2022-11-19T07:51:23.384Z,8.85
2022-11-19T07:53:50.546Z,4.10
2022-11-19T07:56:17.549Z,6.78
2022-11-19T07:58:44.407Z,4.65
2022-11-19T08:01:18.371Z,4.85
2022-11-19T08:03:47.801Z,6.38
2022-11-19T08:06:17.318Z,4.88
2022-11-19T08:08:44.557Z,4.18
2022-11-19T08:11:12.816Z,6.25
2022-11-19T08:13:40.187Z,6.00
2022-11-19T08:16:09.103Z,5.07
2022-11-19T08:18:36.240Z,4.53
2022-11-19T08:21:10.712Z,5.45
2022-11-19T08:23:39.008Z,5.40
2022-11-19T08:26:08.998Z,5.43
2022-11-19T08:28:35.856Z,5.10
2022-11-19T08:31:06.769Z,8.43
2022-11-19T08:33:34.163Z,5.40
2022-11-19T08:36:01.026Z,3.95
2022-11-19T08:38:27.839Z,3.22
2022-11-19T08:41:14.944Z,4.55
2022-11-19T08:43:41.740Z,5.55
2022-11-19T08:46:08.796Z,5.65
2022-11-19T08:48:35.607Z,2.22
2022-11-19T08:51:05.998Z,2.60
2022-11-19T08:53:32.805Z,3.13
2022-11-19T08:55:59.821Z,3.17
2022-11-19T08:58:26.623Z,5.78
2022-11-19T09:00:54.715Z,4.70
2022-11-19T09:03:21.713Z,2.67
2022-11-19T09:05:48.483Z,5.32
2022-11-19T09:08:15.278Z,3.17
2022-11-19T09:10:42.166Z,2.10
2022-11-19T09:13:08.980Z,5.40
2022-11-19T09:15:35.737Z,4.53
2022-11-19T09:18:02.506Z,3.97
2022-11-19T09:20:29.731Z,5.15
2022-11-19T09:22:56.496Z,3.63
2022-11-19T09:25:23.777Z,3.45
2022-11-19T09:27:50.612Z,1.92
2022-11-19T09:30:17.462Z,5.50
2022-11-19T09:32:44.257Z,3.50
2022-11-19T09:35:11.080Z,8.35
2022-11-19T09:37:37.888Z,5.70
2022-11-19T09:40:05.956Z,4.93
2022-11-19T09:42:32.729Z,5.35
2022-11-19T09:44:59.501Z,6.60
2022-11-19T09:47:38.504Z,4.40
2022-11-19T09:50:05.254Z,6.03
2022-11-19T09:52:33.930Z,2.70
2022-11-19T09:55:00.980Z,3.85
2022-11-19T09:57:31.905Z,3.42
2022-11-19T10:00:00.727Z,5.03
2022-11-19T10:02:27.795Z,3.95
2022-11-19T10:04:54.729Z,3.15
2022-11-19T10:07:31.383Z,4.53
2022-11-19T10:10:16.946Z,4.07
2022-11-19T10:12:43.721Z,3.25
2022-11-19T10:15:21.269Z,3.63
2022-11-19T10:18:10.359Z,4.25
2022-11-19T10:20:55.845Z,3.15
2022-11-19T10:23:41.421Z,5.05
2022-11-19T10:26:12.416Z,5.43
2022-11-19T10:28:40.647Z,2.38
2022-11-19T10:31:07.692Z,4.60
2022-11-19T10:33:50.297Z,4.25
2022-11-19T10:36:30.786Z,2.90
2022-11-19T10:39:02.957Z,4.38
2022-11-19T10:41:34.976Z,3.33
2022-11-19T10:44:06.366Z,2.83
2022-11-19T10:46:33.755Z,2.15
2022-11-19T10:49:02.140Z,2.08
2022-11-19T10:51:30.411Z,2.55
2022-11-19T10:53:57.537Z,1.98
2022-11-19T10:56:30.498Z,2.85
2022-11-19T10:59:26.880Z,4.75
2022-11-19T11:01:59.986Z,5.50
2022-11-19T11:04:28.289Z,5.15
2022-11-19T11:07:02.570Z,7.00
2022-11-19T11:09:40.362Z,3.22
2022-11-19T11:14:52.947Z,3.85
2022-11-19T11:17:22.789Z,5.78
2022-11-19T11:20:00.459Z,3.70
2022-11-19T11:22:28.131Z,1.90
2022-11-19T11:24:54.905Z,2.28
2022-11-19T11:27:27.938Z,2.25
2022-11-19T11:30:15.000Z,2.42
2022-11-19T11:32:42.438Z,3.05
2022-11-19T11:35:28.351Z,2.85
2022-11-19T11:37:55.170Z,3.28
2022-11-19T11:40:23.282Z,3.50
2022-11-19T11:42:50.878Z,2.13
2022-11-19T11:45:34.340Z,1.80
2022-11-19T11:48:05.626Z,4.78
2022-11-19T11:50:32.578Z,3.65
2022-11-19T11:53:06.935Z,2.40
2022-11-19T11:55:33.815Z,2.80
2022-11-19T11:58:05.206Z,2.55
2022-11-19T12:00:39.294Z,2.88
2022-11-19T12:03:10.307Z,4.03
2022-11-19T12:05:47.573Z,2.05
2022-11-19T12:08:25.621Z,1.85
2022-11-19T12:11:08.856Z,3.42
2022-11-19T12:13:41.717Z,4.65
2022-11-19T12:16:11.612Z,1.95
2022-11-19T12:18:55.883Z,2.35
2022-11-19T12:21:41.637Z,2.55
2022-11-19T12:24:23.693Z,3.75
2022-11-19T12:27:09.108Z,3.13
2022-11-19T12:29:54.424Z,4.63
2022-11-19T12:32:40.108Z,3.25
2022-11-19T12:35:14.407Z,2.05
2022-11-19T12:37:54.224Z,1.40
2022-11-19T12:40:20.992Z,1.33
2022-11-19T12:42:47.714Z,4.88
2022-11-19T12:45:36.907Z,2.92
2022-11-19T12:48:03.670Z,1.95
2022-11-19T12:50:35.829Z,2.90
2022-11-19T12:53:18.048Z,2.25
2022-11-19T12:56:03.671Z,4.03
2022-11-19T12:58:37.522Z,2.65
2022-11-19T13:01:06.003Z,3.55
2022-11-19T13:03:54.400Z,2.97
2022-11-19T13:06:41.415Z,2.22
2022-11-19T13:09:12.898Z,1.25
2022-11-19T13:14:17.653Z,1.88
2022-11-19T13:16:44.703Z,1.38
2022-11-19T13:19:14.532Z,1.65
2022-11-19T13:22:10.880Z,1.58
2022-11-19T13:24:48.876Z,2.88
2022-11-19T13:27:23.117Z,4.07
2022-11-19T13:29:56.441Z,2.63
2022-11-19T13:32:39.492Z,1.80
2022-11-19T13:35:25.255Z,2.88
2022-11-19T13:38:00.301Z,2.40
2022-11-19T13:40:32.517Z,2.53
2022-11-19T13:43:31.468Z,3.17
2022-11-19T13:46:21.623Z,2.20
2022-11-19T13:48:58.100Z,2.42
2022-11-19T13:51:37.598Z,4.72
2022-11-19T13:54:04.841Z,2.42
2022-11-19T13:56:39.582Z,3.13
2022-11-19T13:59:06.988Z,2.20
2022-11-19T14:01:36.875Z,3.97
2022-11-19T14:04:03.676Z,4.45
2022-11-19T14:06:30.403Z,5.40
2022-11-19T14:08:59.986Z,3.75
2022-11-19T14:11:26.780Z,2.47
2022-11-19T14:14:05.958Z,3.45
2022-11-19T14:17:08.161Z,4.43
2022-11-19T14:20:10.501Z,2.42
2022-11-19T14:23:00.199Z,3.50
2022-11-19T14:25:58.079Z,2.90
2022-11-19T14:28:57.259Z,4.40
2022-11-19T14:31:24.061Z,5.15
2022-11-19T14:34:04.003Z,5.50
2022-11-19T14:36:31.034Z,4.20
2022-11-19T14:38:59.748Z,3.00
2022-11-19T14:41:29.781Z,1.85
2022-11-19T14:44:10.867Z,3.88
2022-11-19T14:46:39.138Z,2.17
2022-11-19T14:49:13.656Z,0.95
2022-11-19T14:51:40.885Z,1.88
2022-11-19T14:54:13.632Z,2.75
2022-11-19T14:56:41.055Z,2.92
2022-11-19T14:59:19.183Z,3.40
2022-11-19T15:01:49.062Z,4.97
2022-11-19T15:04:16.049Z,4.75
2022-11-19T15:06:44.066Z,3.55
2022-11-19T15:09:10.981Z,2.45
2022-11-19T15:11:56.131Z,3.22
2022-11-19T15:14:28.993Z,3.50
2022-11-19T15:16:58.314Z,2.55
2022-11-19T15:19:31.265Z,4.50
2022-11-19T15:22:01.332Z,2.97
2022-11-19T15:24:36.862Z,4.13
2022-11-19T15:27:12.414Z,6.80
2022-11-19T15:29:47.966Z,4.10
2022-11-19T15:32:33.771Z,6.03
2022-11-19T15:35:15.881Z,2.20
2022-11-19T15:38:01.945Z,5.00
2022-11-19T15:40:29.986Z,2.05
2022-11-19T15:43:16.646Z,5.45
2022-11-19T15:45:46.088Z,4.63
2022-11-19T15:48:15.790Z,2.75
2022-11-19T15:50:43.306Z,4.03
2022-11-19T15:53:18.065Z,2.55
2022-11-19T15:56:08.159Z,2.50
2022-11-19T15:58:43.019Z,3.40
2022-11-19T16:01:24.230Z,4.22
2022-11-19T16:03:52.198Z,4.50
2022-11-19T16:06:21.111Z,2.35
2022-11-19T16:08:51.684Z,3.25
2022-11-19T16:11:38.664Z,3.80
2022-11-19T16:14:56.843Z,4.90
2022-11-19T16:17:43.614Z,4.80
2022-11-19T16:20:10.919Z,4.15
2022-11-19T16:22:39.968Z,3.60
2022-11-19T16:25:33.193Z,3.38
2022-11-19T16:28:02.327Z,5.95
2022-11-19T16:30:30.087Z,4.82
2022-11-19T16:32:59.788Z,4.75
2022-11-19T16:35:27.870Z,4.93
2022-11-19T16:37:55.141Z,4.95
2022-11-19T16:40:22.259Z,5.82
2022-11-19T16:42:56.493Z,9.88
2022-11-19T16:45:25.363Z,7.97
2022-11-19T16:47:54.182Z,5.88
2022-11-19T16:50:27.063Z,8.70
2022-11-19T16:52:54.492Z,6.63
2022-11-19T16:55:24.415Z,8.25
2022-11-19T16:57:53.616Z,7.30
2022-11-19T17:00:22.010Z,6.85
2022-11-19T17:02:50.211Z,7.28
2022-11-19T17:05:18.881Z,9.05
2022-11-19T17:07:48.031Z,7.95
2022-11-19T17:10:24.545Z,8.82
2022-11-19T17:12:54.064Z,8.55
2022-11-19T17:15:40.370Z,12.05
2022-11-19T17:18:09.957Z,9.85
2022-11-19T17:20:36.681Z,10.77
2022-11-19T17:23:09.159Z,12.43
2022-11-19T17:25:36.985Z,10.77
2022-11-19T17:28:03.800Z,9.30
2022-11-19T17:30:31.505Z,8.60
2022-11-19T17:33:02.517Z,7.57
2022-11-19T17:35:34.339Z,9.85
2022-11-19T17:38:09.308Z,8.48
2022-11-19T17:40:36.165Z,9.13
2022-11-19T17:43:21.755Z,13.65
2022-11-19T17:45:48.573Z,10.07
2022-11-19T17:48:20.098Z,9.02
2022-11-19T17:50:46.877Z,7.85
2022-11-19T17:53:13.697Z,12.23
2022-11-19T17:55:42.300Z,9.52
2022-11-19T17:58:09.751Z,9.25
2022-11-19T18:00:37.397Z,11.65
2022-11-19T18:03:04.203Z,9.20
2022-11-19T18:05:36.290Z,7.93
2022-11-19T18:08:03.132Z,10.48
2022-11-19T18:10:30.014Z,9.57
2022-11-19T18:12:56.849Z,10.85
2022-11-19T18:15:23.677Z,8.40
2022-11-19T18:17:50.465Z,11.93
2022-11-19T18:20:17.307Z,10.73
2022-11-19T18:22:44.151Z,10.25
2022-11-19T18:25:15.600Z,10.93
2022-11-19T18:27:42.472Z,9.73
2022-11-19T18:30:09.589Z,11.50
2022-11-19T18:32:36.677Z,11.45
2022-11-19T18:35:04.172Z,12.23
2022-11-19T18:37:30.983Z,10.82
2022-11-19T18:39:57.736Z,13.88
2022-11-19T18:42:24.920Z,11.98
2022-11-19T18:44:52.017Z,11.93
2022-11-19T18:47:20.138Z,13.65
2022-11-19T18:49:47.036Z,13.30
2022-11-19T18:52:16.738Z,15.07
2022-11-19T18:54:43.704Z,12.82
2022-11-19T18:57:11.479Z,17.40
2022-11-19T18:59:38.801Z,11.13
2022-11-19T19:02:06.297Z,11.88
2022-11-19T19:04:33.185Z,12.40
2022-11-19T19:07:00.308Z,14.77
2022-11-19T19:09:27.194Z,15.23
2022-11-19T19:12:13.893Z,17.70
2022-11-19T19:14:42.049Z,15.20
2022-11-19T19:17:08.926Z,14.63
2022-11-19T19:19:35.787Z,14.00
2022-11-19T19:22:02.854Z,14.32
2022-11-19T19:24:31.446Z,14.90
2022-11-19T19:27:01.439Z,11.10
2022-11-19T19:29:28.448Z,12.85
2022-11-19T19:31:55.303Z,12.55
2022-11-19T19:34:22.115Z,16.65
2022-11-19T19:36:53.019Z,13.52
2022-11-19T19:39:20.425Z,17.13
2022-11-19T19:41:49.163Z,12.23
2022-11-19T19:44:18.955Z,15.20
2022-11-19T19:46:48.975Z,13.85
2022-11-19T19:49:15.807Z,13.27
2022-11-19T19:51:42.638Z,13.82
2022-11-19T19:54:09.761Z,13.57
2022-11-19T19:56:36.579Z,12.50
2022-11-19T19:59:03.368Z,16.70
2022-11-19T20:01:34.460Z,12.75
2022-11-19T20:04:02.247Z,11.88
2022-11-19T20:06:29.486Z,14.20
2022-11-19T20:08:56.945Z,13.93
2022-11-19T20:11:27.155Z,11.77
2022-11-19T20:13:54.907Z,12.70
2022-11-19T20:16:23.030Z,15.43
2022-11-19T20:18:50.747Z,20.73
2022-11-19T20:21:19.333Z,12.90
2022-11-19T20:23:46.710Z,12.88
2022-11-19T20:26:15.529Z,13.77
2022-11-19T20:28:44.443Z,13.93
2022-11-19T20:31:13.356Z,13.93
2022-11-19T20:33:40.899Z,15.55
2022-11-19T20:36:08.463Z,14.35
2022-11-19T20:38:42.546Z,13.50
2022-11-19T20:41:28.931Z,13.68
2022-11-19T20:44:14.993Z,11.75
2022-11-19T20:46:41.961Z,14.38
2022-11-19T20:49:10.570Z,12.60
2022-11-19T20:51:41.964Z,12.85
2022-11-19T20:54:09.045Z,12.95
2022-11-19T20:56:36.615Z,13.02
2022-11-19T20:59:04.509Z,14.25
2022-11-19T21:01:31.919Z,13.85
2022-11-19T21:03:58.899Z,15.15
2022-11-19T21:06:26.135Z,14.70
2022-11-19T21:08:53.149Z,19.65
2022-11-19T21:11:22.846Z,16.88
2022-11-19T21:13:49.936Z,17.48
2022-11-19T21:16:19.916Z,19.88
2022-11-19T21:18:46.974Z,18.10
2022-11-19T21:21:15.305Z,19.42
2022-11-19T21:23:42.617Z,24.73
2022-11-19T21:26:12.173Z,22.92
2022-11-19T21:28:39.395Z,22.98
2022-11-19T21:31:06.686Z,24.25
2022-11-19T21:33:33.557Z,25.08
2022-11-19T21:36:00.390Z,29.25
2022-11-19T21:38:28.790Z,34.00
2022-11-19T21:40:55.882Z,30.08
2022-11-19T21:43:25.986Z,34.60
2022-11-19T21:45:53.768Z,38.33
2022-11-19T21:48:24.403Z,30.20
2022-11-19T21:50:51.285Z,30.10
2022-11-19T21:53:18.227Z,25.02
2022-11-19T21:55:45.629Z,33.08
2022-11-19T21:58:13.264Z,28.67
2022-11-19T22:00:40.218Z,29.48
2022-11-19T22:03:07.570Z,29.38
2022-11-19T22:05:34.515Z,30.58
2022-11-19T22:08:01.485Z,32.58
2022-11-19T22:10:28.531Z,32.15
2022-11-19T22:12:56.769Z,28.60
2022-11-19T22:15:23.565Z,27.70
2022-11-19T22:17:50.850Z,27.35
2022-11-19T22:20:17.880Z,26.48
2022-11-19T22:22:45.300Z,24.92
2022-11-19T22:25:12.838Z,28.00
2022-11-19T22:27:41.701Z,29.98
2022-11-19T22:30:10.208Z,24.45
2022-11-19T22:32:37.226Z,25.50
2022-11-19T22:35:04.385Z,29.15
2022-11-19T22:37:34.167Z,30.55
2022-11-19T22:40:01.015Z,25.83
2022-11-19T22:42:28.086Z,26.30
2022-11-19T22:44:54.866Z,27.33
2022-11-19T22:47:21.689Z,27.33
2022-11-19T22:49:48.484Z,25.88
2022-11-19T22:52:17.460Z,26.50
2022-11-19T22:54:44.597Z,23.75
2022-11-19T22:57:11.451Z,25.20
2022-11-19T22:59:38.245Z,25.70
2022-11-19T23:02:05.308Z,28.75
2022-11-19T23:04:32.205Z,28.35
2022-11-19T23:06:59.062Z,26.20
2022-11-19T23:09:25.897Z,26.33
2022-11-19T23:12:11.125Z,26.27
2022-11-19T23:14:37.907Z,23.00
2022-11-19T23:17:04.681Z,21.85
2022-11-19T23:19:31.463Z,23.65
2022-11-19T23:21:58.679Z,26.33
2022-11-19T23:24:25.511Z,23.77
2022-11-19T23:26:52.370Z,26.42
2022-11-19T23:29:19.501Z,24.98
2022-11-19T23:31:46.618Z,24.23
2022-11-19T23:34:13.376Z,22.38
2022-11-19T23:36:40.817Z,23.95
2022-11-19T23:39:10.205Z,21.98
2022-11-19T23:41:36.960Z,25.40
2022-11-19T23:44:03.853Z,24.30
2022-11-19T23:46:32.026Z,21.08
2022-11-19T23:48:59.721Z,25.00
2022-11-19T23:51:27.607Z,24.25
2022-11-19T23:53:54.939Z,27.98
2022-11-19T23:56:23.280Z,27.83
2022-11-19T23:58:50.402Z,28.85
